Time;durP1;ratioP1;P1;durP2;ratioP2;P2;SDS_P1;SDS_P2;PMS_P1;PMS_P2;Temp;Humidity;BMP_temperature;BMP_pressure;BME280_temperature;BME280_humidity;BME280_pressure;Samples;Min_cycle;Max_cycle;Signal;HPM_P1;HPM_P2
2022/08/14 00:01:05;;;;;;;3.88;2.97;;;17.60;51.30;;;13.49;73.04;95176.44;4972443;28;20485;-45
2022/08/14 00:03:31;;;;;;;3.28;2.70;;;17.50;51.60;;;13.43;73.24;95172.25;4956074;28;20049;-46
2022/08/14 00:06:01;;;;;;;3.65;2.80;;;17.40;51.60;;;13.27;73.64;95161.00;4972848;28;20022;-45
2022/08/14 00:08:32;;;;;;;5.15;3.30;;;17.40;51.90;;;13.22;73.60;95163.72;4956234;28;20121;-44
2022/08/14 00:10:59;;;;;;;3.92;3.00;;;17.30;52.00;;;13.17;74.13;95163.81;4956559;28;20036;-47
2022/08/14 00:13:28;;;;;;;4.82;2.72;;;17.20;52.20;;;13.10;74.83;95161.50;4971750;28;20030;-44
2022/08/14 00:15:59;;;;;;;3.10;2.83;;;17.20;52.50;;;13.07;75.41;95166.63;4971541;28;20018;-49
2022/08/14 00:18:28;;;;;;;3.75;2.63;;;17.10;52.70;;;13.11;75.50;95164.97;4971952;28;20030;-44
2022/08/14 00:20:59;;;;;;;6.88;2.95;;;17.10;52.80;;;13.11;75.73;95157.72;4971966;28;20109;-43
2022/08/14 00:23:26;;;;;;;5.00;3.00;;;17.10;53.10;;;13.15;75.29;95163.28;4956693;28;20075;-44
2022/08/14 00:25:54;;;;;;;5.18;3.45;;;17.00;53.10;;;13.09;75.72;95154.53;4955718;28;20018;-45
2022/08/14 00:28:44;;;;;;;4.03;3.20;;;17.00;53.40;;;13.04;76.63;95141.28;4957355;28;20473;-45
2022/08/14 00:31:10;;;;;;;4.38;3.03;;;16.90;53.60;;;13.02;77.14;95145.31;4964042;28;20061;-45
2022/08/14 00:33:37;;;;;;;3.28;2.85;;;16.90;53.60;;;13.03;76.99;95141.53;4956560;28;20034;-44
2022/08/14 00:36:04;;;;;;;3.28;2.90;;;16.90;53.90;;;13.05;76.88;95134.81;4940084;28;20037;-46
2022/08/14 00:38:39;;;;;;;4.00;2.95;;;16.90;54.00;;;13.05;76.75;95140.19;4972994;28;20165;-43
2022/08/14 00:41:08;;;;;;;3.55;2.85;;;16.90;54.50;;;12.99;76.91;95138.66;4972650;28;20473;-44
2022/08/14 00:43:37;;;;;;;3.70;3.38;;;16.90;54.40;;;12.98;77.00;95136.28;4972273;28;20115;-49
2022/08/14 00:46:10;;;;;;;5.25;3.47;;;16.90;54.50;;;13.01;76.56;95135.72;4972575;28;20027;-43
2022/08/14 00:48:39;;;;;;;4.00;3.45;;;16.90;54.60;;;12.99;76.72;95137.88;4972907;28;20026;-45
2022/08/14 00:51:09;;;;;;;4.18;3.50;;;16.90;54.50;;;13.01;76.60;95131.16;4923861;28;20050;-50
2022/08/14 00:53:38;;;;;;;3.20;2.90;;;16.90;55.20;;;13.01;76.81;95117.00;4971810;28;20079;-43
2022/08/14 00:56:07;;;;;;;3.78;2.70;;;16.90;55.30;;;13.19;76.48;95116.16;4955292;28;20117;-43
2022/08/14 00:58:35;;;;;;;4.07;2.45;;;16.90;54.80;;;13.28;75.76;95110.97;4955418;28;20107;-44
2022/08/14 01:01:10;;;;;;;4.38;3.47;;;17.00;54.80;;;13.32;75.45;95103.97;4955991;28;20018;-44
2022/08/14 01:03:41;;;;;;;6.13;3.13;;;17.00;55.00;;;13.34;75.30;95104.44;4954722;28;20022;-48
2022/08/14 01:06:15;;;;;;;6.30;3.42;;;17.10;55.00;;;13.32;75.24;95098.63;4972341;28;20046;-44
2022/08/14 01:08:43;;;;;;;3.80;2.70;;;17.10;54.90;;;13.29;75.29;95105.34;4972293;28;20032;-48
2022/08/14 01:11:15;;;;;;;7.15;3.00;;;17.10;54.90;;;13.29;75.54;95100.00;4954941;28;20060;-48
2022/08/14 01:13:44;;;;;;;3.42;3.05;;;17.20;55.00;;;13.29;75.48;95097.31;4958215;28;20033;-43
2022/08/14 01:16:15;;;;;;;3.25;2.95;;;17.20;55.00;;;13.29;75.69;95091.97;4970851;28;20473;-44
2022/08/14 01:21:37;;;;;;;3.60;3.20;;;17.20;54.90;;;13.33;75.56;95094.84;4972219;28;20045;-45
2022/08/14 01:24:14;;;;;;;4.95;2.88;;;17.20;55.00;;;13.30;75.75;95096.22;4971920;28;20446;-43
2022/08/14 01:26:42;;;;;;;3.58;3.20;;;17.20;55.10;;;13.25;76.05;95090.16;4955219;28;20073;-48
2022/08/14 01:29:18;;;;;;;4.75;3.50;;;17.20;55.00;;;13.17;76.56;95079.03;4954975;28;20024;-44
2022/08/14 01:31:51;;;;;;;4.75;3.17;;;17.20;55.30;;;13.16;76.56;95085.47;4954314;28;20033;-46
2022/08/14 01:34:22;;;;;;;4.25;3.13;;;17.10;55.20;;;13.16;76.76;95082.78;4955433;28;20022;-45
2022/08/14 01:36:49;;;;;;;5.10;3.78;;;17.10;55.30;;;13.14;77.23;95086.84;4955419;28;20029;-47
2022/08/14 01:39:17;;;;;;;4.45;3.40;;;17.10;55.40;;;13.16;76.98;95085.47;4971537;28;20037;-49
2022/08/14 01:41:54;;;;;;;3.38;3.03;;;17.10;55.50;;;13.22;76.68;95088.03;4954602;28;20061;-50
2022/08/14 01:44:30;;;;;;;3.92;3.20;;;17.10;55.70;;;13.26;76.64;95073.03;4954670;28;20046;-47
2022/08/14 01:46:58;;;;;;;4.90;3.30;;;17.10;55.90;;;13.26;76.63;95083.75;4938801;28;20046;-48
2022/08/14 01:49:26;;;;;;;3.50;2.88;;;17.10;55.70;;;13.22;76.52;95074.66;4954242;28;20030;-46
2022/08/14 01:51:55;;;;;;;4.65;3.35;;;17.10;55.70;;;13.20;76.53;95083.78;4954230;28;20113;-47
2022/08/14 01:54:24;;;;;;;4.55;3.03;;;17.10;55.80;;;13.13;77.08;95078.03;4953850;28;20046;-49
2022/08/14 01:56:59;;;;;;;4.50;3.63;;;17.10;55.80;;;13.12;76.95;95081.78;4971152;28;20034;-47
2022/08/14 01:59:55;;;;;;;3.92;3.13;;;17.10;56.00;;;13.09;77.96;95071.66;4954167;28;20044;-46
2022/08/14 02:02:24;;;;;;;5.05;3.67;;;17.00;56.00;;;13.10;77.73;95069.78;4954241;28;20030;-45
2022/08/14 02:04:50;;;;;;;3.40;3.08;;;17.00;55.90;;;13.07;77.94;95065.03;4969147;28;20057;-49
2022/08/14 02:07:16;;;;;;;3.67;3.30;;;17.00;55.90;;;13.04;77.59;95063.75;4954145;28;20119;-47
2022/08/14 02:09:42;;;;;;;4.35;3.90;;;17.00;56.00;;;12.98;77.59;95069.47;4954030;28;20433;-46
2022/08/14 02:12:08;;;;;;;5.07;3.83;;;16.90;56.10;;;12.87;77.38;95061.56;4971422;28;20512;-50
2022/08/14 02:14:37;;;;;;;4.60;3.70;;;16.90;56.10;;;12.77;77.75;95061.75;4970743;28;20026;-49
2022/08/14 02:17:08;;;;;;;4.43;3.70;;;16.80;56.20;;;12.67;77.96;95057.34;4955877;28;20119;-46
2022/08/14 02:19:34;;;;;;;3.50;3.20;;;16.80;56.30;;;12.60;78.87;95053.47;4977757;28;20026;-47
2022/08/14 02:22:05;;;;;;;5.03;3.45;;;16.70;56.30;;;12.52;79.83;95056.78;4977490;28;20030;-45
2022/08/14 02:24:36;;;;;;;4.80;3.22;;;16.70;56.60;;;12.48;80.03;95056.56;4977171;28;20030;-45
2022/08/14 02:27:05;;;;;;;6.57;4.03;;;16.60;56.70;;;12.50;79.31;95059.72;4977718;28;20164;-47
2022/08/14 02:29:43;;;;;;;4.88;3.30;;;16.50;56.70;;;12.44;79.68;95050.19;4977755;28;20022;-49
2022/08/14 02:32:10;;;;;;;5.38;3.58;;;16.50;57.00;;;12.40;79.53;95049.97;4960198;28;20065;-51
2022/08/14 02:34:38;;;;;;;4.80;3.75;;;16.50;57.00;;;12.32;80.30;95036.50;4977170;28;20026;-50
2022/08/14 02:37:11;;;;;;;4.35;3.65;;;16.40;57.10;;;12.24;80.33;95035.25;4960262;28;20044;-46
2022/08/14 02:39:45;;;;;;;6.20;4.10;;;16.40;57.20;;;12.22;80.44;95030.22;4960511;28;20487;-45
2022/08/14 02:42:20;;;;;;;5.47;4.25;;;16.30;57.30;;;12.20;80.43;95027.03;4976032;28;20038;-44
2022/08/14 02:44:55;;;;;;;7.05;3.70;;;16.30;57.40;;;12.16;80.78;95015.34;4959937;28;20118;-46
2022/08/14 02:47:27;;;;;;;5.82;3.70;;;16.30;57.60;;;12.11;81.03;95002.06;4944257;28;20398;-46
2022/08/14 02:49:56;;;;;;;4.10;3.70;;;16.20;57.60;;;12.09;81.04;95008.75;4977560;28;20018;-45
2022/08/14 02:52:24;;;;;;;5.05;4.00;;;16.20;57.50;;;12.04;81.12;94998.97;4960332;28;20301;-48
2022/08/14 02:54:55;;;;;;;4.10;3.70;;;16.20;57.60;;;11.99;81.38;94991.00;4956298;28;20042;-48
2022/08/14 02:57:23;;;;;;;5.10;3.60;;;16.10;57.80;;;11.97;81.29;94999.31;4956714;28;20150;-45
2022/08/14 02:59:51;;;;;;;5.43;3.70;;;16.10;57.80;;;11.94;81.31;94989.22;4941126;28;20030;-46
2022/08/14 03:02:17;;;;;;;5.13;4.03;;;16.10;57.90;;;11.91;81.64;94984.44;4957831;28;20385;-45
2022/08/14 03:04:46;;;;;;;4.75;4.13;;;16.10;58.00;;;11.89;81.96;94962.56;4956563;28;20022;-51
2022/08/14 03:07:15;;;;;;;5.47;3.72;;;16.00;58.00;;;11.92;82.00;94955.88;4960127;28;20034;-47
2022/08/14 03:09:41;;;;;;;6.15;3.78;;;16.00;58.10;;;11.97;81.71;94956.59;4958060;28;20085;-47
2022/08/14 03:12:13;;;;;;;6.32;3.45;;;16.00;58.20;;;12.02;81.68;94955.72;4956709;28;20030;-44
2022/08/14 03:14:48;;;;;;;4.85;3.80;;;16.10;58.40;;;12.04;80.83;94965.03;4957486;28;20050;-51
2022/08/14 03:17:16;;;;;;;3.72;3.42;;;16.10;58.40;;;12.01;80.61;94968.28;4958014;28;20117;-45
2022/08/14 03:19:44;;;;;;;5.03;3.75;;;16.10;58.30;;;11.98;80.63;94973.41;4972652;28;20023;-48
2022/08/14 03:22:10;;;;;;;5.93;3.92;;;16.00;58.30;;;11.92;81.06;94963.88;4956288;28;20092;-47
2022/08/14 03:24:42;;;;;;;4.32;3.63;;;16.00;58.20;;;11.87;81.25;94972.72;4957327;28;20441;-46
2022/08/14 03:27:12;;;;;;;4.13;3.73;;;16.00;58.20;;;11.82;80.90;94967.44;4956823;28;20246;-48
2022/08/14 03:29:39;;;;;;;3.90;3.38;;;16.00;58.20;;;11.76;82.04;94963.25;4952614;28;20456;-50
2022/08/14 03:32:06;;;;;;;5.22;3.55;;;16.00;58.30;;;11.76;81.98;94963.25;4953541;28;20390;-49
2022/08/14 03:34:38;;;;;;;4.63;3.78;;;15.90;58.30;;;11.74;81.33;94976.09;4952969;28;20385;-45
2022/08/14 03:37:09;;;;;;;4.47;3.60;;;15.90;58.50;;;11.69;81.32;94984.13;4954766;28;20458;-45
2022/08/14 03:39:35;;;;;;;4.40;3.95;;;15.90;58.40;;;11.61;80.91;94977.56;4954723;28;20035;-48
2022/08/14 03:42:07;;;;;;;6.28;3.97;;;15.80;58.30;;;11.55;81.07;94978.72;4954288;28;20541;-46
2022/08/14 03:44:34;;;;;;;6.03;3.88;;;15.80;58.50;;;11.50;82.43;94987.59;4953998;28;20462;-48
2022/08/14 03:47:03;;;;;;;4.20;3.80;;;15.70;58.40;;;11.47;83.49;94980.16;4951481;28;20031;-49
2022/08/14 03:49:32;;;;;;;4.22;3.28;;;15.70;58.60;;;11.48;84.80;94976.41;4953677;28;20705;-46
2022/08/14 03:52:04;;;;;;;3.90;3.00;;;15.70;58.90;;;11.52;83.72;94972.06;4953882;28;20033;-48
2022/08/14 03:54:32;;;;;;;4.10;3.55;;;15.60;59.00;;;11.50;83.10;94982.25;4952447;28;20130;-46
2022/08/14 03:57:07;;;;;;;6.43;3.58;;;15.60;58.80;;;11.45;83.12;94984.97;4953930;28;20337;-49
2022/08/14 03:59:36;;;;;;;3.67;3.25;;;15.60;58.90;;;11.41;83.33;94978.63;4967952;28;20118;-48
2022/08/14 04:02:08;;;;;;;6.45;3.70;;;15.50;59.00;;;11.38;83.63;94983.72;4952861;28;20121;-46
2022/08/14 04:04:43;;;;;;;4.75;3.80;;;15.50;59.20;;;11.38;83.82;94981.84;4953749;28;20030;-46
2022/08/14 04:07:09;;;;;;;4.38;3.67;;;15.50;59.30;;;11.47;83.87;94966.00;4953840;28;20038;-53
2022/08/14 04:09:38;;;;;;;4.57;3.67;;;15.50;59.30;;;11.58;82.83;94965.59;4954325;28;20377;-46
2022/08/14 04:12:07;;;;;;;5.40;3.42;;;15.60;59.40;;;11.62;82.36;94965.81;4953973;28;20070;-45
2022/08/14 04:14:33;;;;;;;3.80;3.40;;;15.60;59.40;;;11.60;81.77;94964.53;4953852;28;20066;-44
2022/08/14 04:17:03;;;;;;;5.22;3.70;;;15.60;59.30;;;11.63;81.86;94963.97;4952004;28;20168;-47
2022/08/14 04:19:30;;;;;;;5.07;3.55;;;15.60;59.40;;;11.70;82.16;94967.06;4952290;28;20649;-47
2022/08/14 04:22:02;;;;;;;4.07;3.67;;;15.70;59.50;;;11.78;81.96;94969.09;4968338;28;20041;-46
2022/08/14 04:24:29;;;;;;;5.45;3.13;;;15.70;59.60;;;11.86;81.98;94968.50;4952249;28;20029;-46
2022/08/14 04:26:55;;;;;;;4.57;3.53;;;15.80;59.50;;;11.92;81.38;94970.00;4936124;28;20041;-45
2022/08/14 04:29:40;;;;;;;4.65;3.90;;;15.90;59.60;;;12.02;81.00;94964.53;4953784;28;20027;-48
2022/08/14 04:32:11;;;;;;;17.30;4.00;;;15.90;59.70;;;12.14;80.83;94957.97;4952495;28;20561;-48
2022/08/14 04:34:40;;;;;;;5.22;3.72;;;16.00;59.60;;;12.25;80.61;94962.06;4936405;28;20038;-46
2022/08/14 04:45:39;;;;;;;4.90;3.17;;;16.30;59.20;;;12.36;79.79;94976.88;4953476;28;20033;-50
2022/08/14 04:48:15;;;;;;;5.10;3.90;;;16.40;59.20;;;12.29;79.48;94973.00;4936265;28;20030;-48
2022/08/14 04:50:49;;;;;;;6.40;4.00;;;16.40;59.00;;;12.22;79.09;94976.81;4936303;28;20026;-46
2022/08/14 04:53:28;;;;;;;4.03;3.60;;;16.40;58.80;;;12.13;79.00;94977.75;4967511;28;20088;-47
2022/08/14 04:55:54;;;;;;;4.55;4.05;;;16.40;58.80;;;12.03;79.02;94976.00;4984908;23;20070;-46
2022/08/14 04:58:34;;;;;;;4.55;3.75;;;16.30;58.60;;;11.94;78.98;94983.06;4952865;28;20076;-49
2022/08/14 05:01:07;;;;;;;4.07;3.67;;;16.30;58.70;;;11.87;80.42;94985.28;4953417;28;20038;-48
2022/08/14 05:03:39;;;;;;;6.47;3.95;;;16.20;58.60;;;11.86;81.57;94989.03;4936300;28;20122;-46
2022/08/14 05:06:11;;;;;;;9.35;4.30;;;16.20;58.70;;;11.91;82.06;94987.13;4951769;28;20114;-51
2022/08/14 05:08:39;;;;;;;4.13;3.72;;;16.20;58.80;;;12.03;82.54;94989.34;4968136;28;20077;-43
2022/08/14 05:11:07;;;;;;;4.03;3.63;;;16.20;58.80;;;12.17;82.36;94986.75;4950666;28;20033;-47
2022/08/14 05:13:35;;;;;;;4.47;3.70;;;16.30;58.90;;;12.32;81.69;94980.41;4951452;28;20038;-47
2022/08/14 05:16:06;;;;;;;4.38;3.90;;;16.30;58.90;;;12.55;81.60;94992.09;4951130;28;20069;-43
2022/08/14 05:18:37;;;;;;;6.80;3.83;;;16.40;59.00;;;12.68;80.21;95000.13;4951660;28;20039;-46
2022/08/14 05:21:10;;;;;;;4.15;3.72;;;16.50;58.90;;;12.66;79.81;94994.31;4952986;28;20028;-47
2022/08/14 05:23:39;;;;;;;4.70;3.72;;;16.60;58.90;;;12.73;80.02;94983.25;4951669;28;20041;-45
2022/08/14 05:26:17;;;;;;;5.28;3.10;;;16.70;58.90;;;13.10;79.07;94978.88;4967184;28;20023;-45
2022/08/14 05:28:46;;;;;;;4.63;3.60;;;16.90;58.90;;;13.48;77.29;94976.88;4961765;28;20029;-43
2022/08/14 05:31:17;;;;;;;5.38;3.67;;;17.20;58.70;;;13.81;75.57;94966.03;4948370;28;20520;-44
2022/08/14 05:33:45;;;;;;;4.07;3.17;;;17.50;58.50;;;14.18;74.71;94964.19;4967361;28;20039;-48
2022/08/14 05:36:15;;;;;;;6.22;3.30;;;17.80;58.30;;;14.55;72.70;94960.41;4967206;28;20023;-44
2022/08/14 05:38:46;;;;;;;5.03;3.22;;;18.10;57.90;;;14.94;71.27;94961.59;4967433;28;20077;-44
2022/08/14 05:41:18;;;;;;;4.45;3.33;;;18.50;57.60;;;15.30;69.44;94949.97;4967253;28;20027;-45
2022/08/14 05:43:47;;;;;;;3.80;3.47;;;18.80;57.20;;;15.60;68.32;94949.13;4967154;28;20029;-47
2022/08/14 05:46:23;;;;;;;6.75;3.40;;;19.10;56.70;;;15.84;67.08;94940.69;4967083;28;20035;-46
2022/08/14 05:48:52;;;;;;;3.92;2.92;;;19.40;56.20;;;16.10;65.91;94934.56;4951282;28;20023;-48
2022/08/14 05:51:24;;;;;;;4.25;2.80;;;19.70;55.60;;;16.36;65.56;94930.00;4967420;28;20393;-49
2022/08/14 05:53:52;;;;;;;4.10;2.70;;;20.10;55.10;;;16.57;64.74;94915.91;4966559;28;20058;-50
2022/08/14 05:56:24;;;;;;;4.95;2.88;;;20.30;54.60;;;16.74;64.12;94917.78;4935392;28;20043;-47
2022/08/14 05:58:56;;;;;;;3.50;3.20;;;20.60;54.10;;;16.97;63.23;94919.16;4932073;29;20066;-51
2022/08/14 06:01:25;;;;;;;3.40;3.10;;;20.90;53.60;;;17.13;62.69;94910.59;4933172;29;20023;-47
2022/08/14 06:03:57;;;;;;;5.53;3.00;;;21.10;53.10;;;17.38;61.54;94912.38;4947002;28;20286;-46
2022/08/14 06:06:23;;;;;;;6.17;3.17;;;21.40;52.50;;;17.49;60.71;94908.22;4933508;29;20386;-45
2022/08/14 06:08:49;;;;;;;3.28;3.00;;;21.70;52.00;;;17.66;59.76;94899.25;4932998;29;20031;-44
2022/08/14 06:11:14;;;;;;;5.32;2.90;;;21.90;51.40;;;17.82;59.39;94893.31;4928835;29;20087;-44
2022/08/14 06:13:43;;;;;;;3.78;3.08;;;22.10;50.80;;;18.00;58.41;94895.56;4943308;28;20036;-46
2022/08/14 06:16:09;;;;;;;3.00;2.70;;;22.30;50.40;;;18.21;57.82;94905.59;4947262;29;20111;-47
2022/08/14 06:18:35;;;;;;;5.47;3.28;;;22.60;49.90;;;18.35;57.55;94910.69;4948271;29;20031;-44
2022/08/14 06:21:08;;;;;;;3.13;2.83;;;22.70;49.40;;;18.61;56.80;94910.47;4933031;29;20529;-46
2022/08/14 06:23:34;;;;;;;5.32;3.40;;;23.00;48.80;;;18.77;56.85;94910.66;4947754;29;20062;-44
2022/08/14 06:26:05;;;;;;;5.53;3.05;;;23.20;48.50;;;18.87;56.53;94905.66;4932775;29;20023;-45
2022/08/14 06:28:31;;;;;;;3.75;3.38;;;23.50;48.00;;;18.99;56.55;94907.59;4932568;29;20466;-47
2022/08/14 06:31:10;;;;;;;3.40;3.10;;;23.70;47.60;;;19.19;56.54;94914.81;4941283;29;20296;-45
2022/08/14 06:33:36;;;;;;;3.85;3.55;;;24.00;47.30;;;19.45;56.01;94911.00;4935992;29;20042;-47
2022/08/14 06:36:08;;;;;;;4.13;3.72;;;24.20;47.00;;;19.60;55.64;94912.25;4940332;29;20038;-46
2022/08/14 06:38:34;;;;;;;4.22;3.63;;;24.40;46.60;;;19.85;55.59;94916.53;4933128;29;20030;-45
2022/08/14 06:41:00;;;;;;;6.22;3.95;;;24.60;46.30;;;20.03;55.11;94922.50;4944842;29;20026;-47
2022/08/14 06:43:32;;;;;;;6.55;3.70;;;24.80;46.00;;;20.25;55.09;94923.91;4951799;29;20031;-45
2022/08/14 06:46:01;;;;;;;8.70;4.07;;;25.10;45.70;;;20.47;54.60;94925.31;4951545;29;20028;-47
2022/08/14 06:48:27;;;;;;;4.18;3.80;;;25.30;45.40;;;20.76;54.11;94924.22;4966785;28;20365;-45
2022/08/14 06:50:55;;;;;;;5.55;4.13;;;25.60;45.20;;;20.95;53.43;94928.97;4950587;29;20113;-45
2022/08/14 06:53:24;;;;;;;6.93;3.72;;;25.80;44.80;;;21.18;52.91;94923.75;4966800;28;20504;-45
2022/08/14 06:55:54;;;;;;;4.05;3.65;;;26.10;44.50;;;21.19;52.59;94916.44;4962722;28;20047;-46
2022/08/14 06:58:22;;;;;;;4.20;3.80;;;26.30;44.00;;;21.40;52.61;94924.34;4932731;29;20023;-47
2022/08/14 07:06:20;;;;;;;4.35;3.95;;;27.10;43.10;;;22.31;50.18;94929.59;4936584;29;20120;-47
2022/08/14 07:08:46;;;;;;;5.28;4.25;;;27.30;42.60;;;22.58;49.38;94932.44;4936367;29;20039;-49
2022/08/14 07:11:21;;;;;;;4.47;4.07;;;27.60;42.30;;;22.79;48.49;94942.97;4950983;28;20019;-50
2022/08/14 07:13:50;;;;;;;4.95;3.83;;;27.90;41.80;;;23.01;48.19;94933.31;4935088;29;20034;-50
2022/08/14 07:16:18;;;;;;;4.97;3.70;;;28.20;41.30;;;23.16;47.81;94932.44;4934647;29;20053;-48
2022/08/14 07:18:53;;;;;;;4.95;4.07;;;28.40;40.80;;;23.47;46.98;94933.34;4950200;28;20063;-47
2022/08/14 07:21:19;;;;;;;4.85;4.20;;;28.80;40.40;;;23.65;46.17;94920.06;4934511;28;20026;-50
2022/08/14 07:23:45;;;;;;;6.10;3.90;;;29.00;39.90;;;23.66;46.21;94917.00;4935036;29;20121;-51
2022/08/14 07:26:12;;;;;;;4.00;3.70;;;29.20;39.40;;;23.78;46.23;94918.75;4935214;28;20046;-46
2022/08/14 07:28:40;;;;;;;6.45;4.20;;;29.40;38.90;;;23.90;45.89;94932.13;4935592;29;20023;-46
2022/08/14 07:31:11;;;;;;;4.38;3.97;;;29.60;38.40;;;24.14;46.22;94941.81;4935829;29;20110;-46
2022/08/14 07:34:03;;;;;;;4.20;3.80;;;29.80;38.10;;;24.35;44.44;94943.25;4935462;29;20093;-46
2022/08/14 07:36:29;;;;;;;6.22;3.60;;;30.10;38.00;;;24.70;43.90;94949.22;4932077;29;20101;-45
2022/08/14 07:39:00;;;;;;;4.47;3.80;;;30.30;37.60;;;25.00;42.66;94937.47;4935653;29;20430;-46
2022/08/14 07:41:28;;;;;;;5.25;4.15;;;30.60;36.90;;;25.24;42.64;94935.44;4934079;29;20038;-46
2022/08/14 07:43:57;;;;;;;4.03;3.72;;;30.80;36.60;;;25.66;42.39;94934.25;4934915;29;20035;-47
2022/08/14 07:46:32;;;;;;;6.00;3.80;;;31.10;36.10;;;26.10;40.43;94938.91;4950236;28;20557;-46
2022/08/14 07:49:11;;;;;;;3.63;3.10;;;31.40;35.60;;;26.19;40.93;94931.94;4950103;28;20035;-46
2022/08/14 07:51:47;;;;;;;4.07;3.67;;;31.70;35.30;;;26.57;39.49;94940.75;4935586;29;20118;-45
2022/08/14 07:54:22;;;;;;;4.72;3.70;;;32.10;34.70;;;26.79;38.21;94938.13;4933946;29;20094;-46
2022/08/14 07:56:48;;;;;;;4.38;3.63;;;32.50;34.00;;;26.64;38.73;94938.09;4935178;29;20410;-45
2022/08/14 07:59:15;;;;;;;4.15;3.78;;;32.80;33.60;;;26.83;38.21;94928.78;4949789;28;20026;-46
2022/08/14 08:01:46;;;;;;;4.88;3.70;;;33.10;33.60;;;27.03;37.71;94914.81;4935329;29;20506;-46
2022/08/14 08:04:15;;;;;;;3.67;3.40;;;33.30;32.20;;;26.93;37.95;94908.13;4949135;28;20061;-47
2022/08/14 08:06:45;;;;;;;3.80;3.50;;;33.50;31.70;;;27.11;37.80;94908.97;4949784;28;20037;-46
2022/08/14 08:09:20;;;;;;;4.57;3.35;;;33.60;31.20;;;27.39;36.96;94916.47;4935080;28;20490;-47
2022/08/14 08:11:46;;;;;;;4.18;3.20;;;33.60;31.00;;;27.66;35.81;94927.03;4934860;29;20026;-46
2022/08/14 08:14:12;;;;;;;3.55;3.25;;;33.60;30.80;;;27.61;36.12;94930.16;4934363;29;20058;-50
2022/08/14 08:16:38;;;;;;;3.45;3.13;;;33.60;30.50;;;27.83;35.36;94936.47;4934534;29;20033;-49
2022/08/14 08:19:10;;;;;;;3.58;3.25;;;33.70;30.20;;;28.04;34.83;94936.44;4934822;29;20123;-50
2022/08/14 08:21:39;;;;;;;3.70;3.40;;;33.80;29.80;;;28.20;34.20;94941.50;4949723;28;20057;-46
2022/08/14 08:24:05;;;;;;;4.95;3.83;;;34.10;29.60;;;28.38;34.06;94935.97;4934304;29;20031;-45
2022/08/14 08:26:40;;;;;;;3.55;3.25;;;34.30;29.40;;;28.50;33.65;94930.13;4949264;28;20371;-46
2022/08/14 08:29:17;;;;;;;4.15;3.50;;;34.50;29.20;;;28.60;33.49;94914.81;4934777;29;20482;-48
2022/08/14 08:31:52;;;;;;;3.90;3.60;;;34.60;28.80;;;28.78;34.13;94920.25;4948577;28;20034;-47
2022/08/14 08:34:26;;;;;;;5.60;3.55;;;34.80;28.80;;;28.95;34.28;94927.59;4948840;28;20027;-47
2022/08/14 08:36:52;;;;;;;4.30;3.60;;;35.00;28.70;;;29.06;34.36;94927.59;4946154;28;20130;-46
2022/08/14 08:39:24;;;;;;;3.80;3.50;;;35.10;28.80;;;29.12;34.82;94919.72;4912102;29;20138;-46
2022/08/14 08:41:55;;;;;;;4.30;3.90;;;35.30;28.80;;;28.81;35.51;94909.25;4949260;28;20059;-48
2022/08/14 08:44:31;;;;;;;3.85;3.55;;;35.40;28.70;;;29.04;35.05;94902.53;4933447;29;20114;-49
2022/08/14 08:47:06;;;;;;;4.82;3.40;;;35.50;28.60;;;29.17;34.05;94898.13;4934280;29;20086;-46
2022/08/14 08:49:41;;;;;;;4.35;3.60;;;35.60;28.40;;;29.16;34.26;94898.53;4948960;28;20034;-47
2022/08/14 08:52:08;;;;;;;3.72;3.42;;;35.60;28.30;;;28.88;34.72;94897.47;4948866;28;20251;-49
2022/08/14 08:54:34;;;;;;;4.63;4.32;;;35.60;28.20;;;29.25;34.37;94885.94;4933432;29;20440;-47
2022/08/14 08:57:11;;;;;;;4.03;3.50;;;35.70;28.20;;;29.47;33.33;94883.84;4933142;29;20034;-46
2022/08/14 08:59:40;;;;;;;6.72;4.22;;;35.90;27.90;;;29.69;33.03;94889.97;4949170;28;20513;-47
2022/08/14 09:02:09;;;;;;;5.35;4.22;;;36.00;27.70;;;30.07;32.90;94892.75;4948925;28;20126;-46
2022/08/14 09:04:46;;;;;;;4.50;4.10;;;36.20;27.60;;;30.36;32.13;94882.28;4933541;29;20027;-47
2022/08/14 09:07:13;;;;;;;3.83;3.63;;;36.40;27.50;;;30.51;31.47;94893.91;4934108;29;20576;-47
2022/08/14 09:09:50;;;;;;;4.25;3.72;;;36.60;27.30;;;30.71;31.07;94901.53;4932769;29;20031;-47
2022/08/14 09:12:21;;;;;;;6.60;3.70;;;36.80;27.10;;;30.70;31.38;94899.97;4877503;28;21882;-48
2022/08/14 09:14:57;;;;;;;4.20;3.90;;;37.00;26.80;;;30.81;31.33;94895.94;4918501;29;20430;-47
2022/08/14 09:17:23;;;;;;;4.03;3.70;;;37.10;26.70;;;31.17;31.42;94905.69;4932465;28;20110;-49
2022/08/14 09:19:53;;;;;;;4.05;3.75;;;37.40;26.70;;;31.49;30.45;94905.22;4929248;29;20495;-48
2022/08/14 09:22:22;;;;;;;4.30;4.00;;;37.60;26.50;;;31.96;29.69;94902.53;4913471;29;20064;-46
2022/08/14 09:24:53;;;;;;;3.90;3.60;;;37.90;26.30;;;32.15;28.67;94903.78;4927631;29;20103;-48
2022/08/14 09:27:19;;;;;;;3.90;3.60;;;38.10;25.90;;;32.09;28.98;94898.00;4925011;29;20032;-47
2022/08/14 09:29:51;;;;;;;4.07;3.53;;;38.30;25.70;;;32.07;28.45;94905.91;4912627;29;20038;-49
2022/08/14 09:32:43;;;;;;;4.65;4.25;;;38.60;25.40;;;32.17;28.86;94901.41;4928502;29;20039;-46
2022/08/14 09:35:29;;;;;;;4.13;3.80;;;38.70;25.30;;;32.76;28.15;94913.72;4912979;29;20027;-48
2022/08/14 09:38:38;;;;;;;3.72;3.53;;;39.10;25.10;;;33.18;27.65;94923.09;4913153;29;20043;-49
2022/08/14 09:41:48;;;;;;;3.65;3.45;;;39.50;25.00;;;33.29;27.34;94931.16;4914563;29;20033;-48
2022/08/14 09:45:10;;;;;;;4.30;3.90;;;39.90;24.80;;;33.09;27.61;94917.38;4928407;29;20083;-47
2022/08/14 09:47:56;;;;;;;4.72;3.50;;;40.20;24.40;;;32.82;27.13;94925.81;4912397;29;20601;-47
2022/08/14 09:50:43;;;;;;;7.38;3.80;;;40.30;24.00;;;33.11;26.92;94917.75;4931349;29;20625;-47
2022/08/14 09:53:15;;;;;;;3.83;3.53;;;40.40;23.70;;;33.56;26.11;94895.06;4930487;28;20039;-49
2022/08/14 09:55:57;;;;;;;4.20;3.80;;;40.50;23.40;;;33.91;24.70;94887.94;4946043;28;20050;-48
2022/08/14 09:58:34;;;;;;;;;;;40.70;23.00;;;34.13;24.14;94882.66;4938887;28;20041;-49
2022/08/14 10:01:18;;;;;;;3.80;3.50;;;40.90;23.40;;;34.12;24.38;94883.09;4946823;28;19950;-49
2022/08/14 10:03:59;;;;;;;3.97;3.58;;;41.10;22.70;;;34.15;23.64;94879.44;4946193;28;20023;-49
2022/08/14 10:06:28;;;;;;;4.45;3.65;;;41.20;22.40;;;33.93;23.62;94879.19;4930460;29;20445;-49
2022/08/14 10:09:05;;;;;;;4.05;3.72;;;41.40;22.00;;;34.06;23.90;94871.78;4947651;28;20034;-54
2022/08/14 10:11:39;;;;;;;5.05;4.63;;;41.50;21.70;;;34.17;24.30;94872.28;4936895;29;20042;-53
2022/08/14 10:14:33;;;;;;;4.88;3.85;;;41.70;21.50;;;33.96;24.13;94870.03;4931354;29;20061;-49
2022/08/14 10:17:02;;;;;;;4.63;3.75;;;41.90;21.50;;;34.45;24.00;94869.97;4931949;29;20423;-53
2022/08/14 10:19:28;;;;;;;3.83;3.60;;;41.90;21.40;;;34.47;23.87;94868.31;4933408;29;20027;-52
2022/08/14 10:22:09;;;;;;;3.85;3.53;;;42.10;21.20;;;34.69;23.34;94874.06;4912796;29;20028;-53
2022/08/14 10:24:45;;;;;;;4.32;3.50;;;42.20;21.10;;;35.00;22.90;94879.84;4910499;29;20035;-50
2022/08/14 10:27:27;;;;;;;3.65;3.35;;;42.20;20.90;;;35.17;22.84;94875.03;4914391;29;20036;-54
2022/08/14 10:30:20;;;;;;;3.90;3.60;;;42.30;20.80;;;34.67;24.32;94872.94;4931850;29;20023;-55
2022/08/14 10:32:52;;;;;;;6.93;4.13;;;42.40;21.00;;;34.97;24.72;94872.44;4931365;29;20034;-51
2022/08/14 10:35:21;;;;;;;;;;;42.50;21.00;;;34.99;24.77;94869.25;4932604;29;20026;-47
2022/08/14 10:37:51;;;;;;;4.15;3.70;;;42.70;21.30;;;35.30;23.82;94860.44;4933136;29;19911;-47
2022/08/14 10:40:37;;;;;;;4.23;3.93;;;42.70;21.00;;;35.31;23.68;94854.44;4935500;29;20031;-48
2022/08/14 10:43:15;;;;;;;4.22;3.53;;;42.70;21.10;;;35.33;23.25;94862.31;4936461;29;20023;-50
2022/08/14 10:45:56;;;;;;;4.05;3.75;;;42.50;20.80;;;35.37;23.33;94852.69;4950995;28;20109;-53
2022/08/14 10:48:23;;;;;;;3.63;3.38;;;42.50;20.80;;;34.97;23.39;94853.06;4937091;29;20023;-47
2022/08/14 10:50:52;;;;;;;4.15;3.63;;;42.50;20.60;;;35.05;23.03;94852.91;4936507;28;20031;-50
2022/08/14 10:53:36;;;;;;;4.07;3.75;;;42.60;20.40;;;35.12;21.50;94850.69;4948829;28;20046;-48
2022/08/14 10:56:12;;;;;;;3.28;3.08;;;42.60;20.30;;;35.16;22.09;94856.09;4963027;23;20057;-51